sensor_id;sensor_type;location;lat;lon;timestamp;P1;durP1;ratioP1;P2;durP2;ratioP2
72601;SDS011;60644;55.858;37.390;2022-11-11T00:02:01;42.20;;;15.25;;
72601;SDS011;60644;55.858;37.390;2022-11-11T00:04:46;39.47;;;15.43;;
72601;SDS011;60644;55.858;37.390;2022-11-11T00:07:30;35.33;;;15.23;;
72601;SDS011;60644;55.858;37.390;2022-11-11T00:10:14;38.22;;;15.15;;
72601;SDS011;60644;55.858;37.390;2022-11-11T00:13:02;41.17;;;15.63;;
72601;SDS011;60644;55.858;37.390;2022-11-11T00:15:48;37.00;;;16.00;;
72601;SDS011;60644;55.858;37.390;2022-11-11T00:18:33;42.85;;;16.83;;
72601;SDS011;60644;55.858;37.390;2022-11-11T00:21:37;39.83;;;16.13;;
72601;SDS011;60644;55.858;37.390;2022-11-11T00:24:40;40.72;;;15.32;;
72601;SDS011;60644;55.858;37.390;2022-11-11T00:27:43;41.97;;;16.65;;
72601;SDS011;60644;55.858;37.390;2022-11-11T00:30:28;39.80;;;16.27;;
72601;SDS011;60644;55.858;37.390;2022-11-11T00:33:13;34.22;;;15.00;;
72601;SDS011;60644;55.858;37.390;2022-11-11T00:35:57;42.30;;;15.60;;
72601;SDS011;60644;55.858;37.390;2022-11-11T00:38:42;40.63;;;14.32;;
72601;SDS011;60644;55.858;37.390;2022-11-11T00:41:29;39.03;;;14.93;;
72601;SDS011;60644;55.858;37.390;2022-11-11T00:44:14;36.42;;;15.98;;
72601;SDS011;60644;55.858;37.390;2022-11-11T00:46:58;36.97;;;14.45;;
72601;SDS011;60644;55.858;37.390;2022-11-11T00:50:02;35.07;;;14.80;;
72601;SDS011;60644;55.858;37.390;2022-11-11T00:53:11;39.30;;;16.13;;
72601;SDS011;60644;55.858;37.390;2022-11-11T00:55:58;37.80;;;15.07;;
72601;SDS011;60644;55.858;37.390;2022-11-11T00:58:43;35.97;;;14.38;;
72601;SDS011;60644;55.858;37.390;2022-11-11T01:01:27;36.60;;;15.10;;
72601;SDS011;60644;55.858;37.390;2022-11-11T01:04:12;28.00;;;11.97;;
72601;SDS011;60644;55.858;37.390;2022-11-11T01:06:56;34.83;;;15.55;;
72601;SDS011;60644;55.858;37.390;2022-11-11T01:09:41;36.40;;;13.77;;
72601;SDS011;60644;55.858;37.390;2022-11-11T01:12:25;35.17;;;14.10;;
72601;SDS011;60644;55.858;37.390;2022-11-11T01:15:10;37.72;;;15.38;;
72601;SDS011;60644;55.858;37.390;2022-11-11T01:17:54;31.30;;;13.53;;
72601;SDS011;60644;55.858;37.390;2022-11-11T01:20:39;33.72;;;13.48;;
72601;SDS011;60644;55.858;37.390;2022-11-11T01:23:24;31.63;;;13.98;;
72601;SDS011;60644;55.858;37.390;2022-11-11T01:26:13;34.83;;;14.27;;
72601;SDS011;60644;55.858;37.390;2022-11-11T01:28:58;32.55;;;13.25;;
72601;SDS011;60644;55.858;37.390;2022-11-11T01:31:42;31.50;;;13.47;;
72601;SDS011;60644;55.858;37.390;2022-11-11T01:34:27;35.92;;;13.48;;
72601;SDS011;60644;55.858;37.390;2022-11-11T01:37:12;30.60;;;13.85;;
72601;SDS011;60644;55.858;37.390;2022-11-11T01:39:56;30.10;;;12.93;;
72601;SDS011;60644;55.858;37.390;2022-11-11T01:42:48;32.00;;;13.60;;
72601;SDS011;60644;55.858;37.390;2022-11-11T01:48:36;28.50;;;11.80;;
72601;SDS011;60644;55.858;37.390;2022-11-11T01:54:37;26.98;;;12.70;;
72601;SDS011;60644;55.858;37.390;2022-11-11T02:00:37;26.47;;;12.67;;
72601;SDS011;60644;55.858;37.390;2022-11-11T02:03:23;28.48;;;11.88;;
72601;SDS011;60644;55.858;37.390;2022-11-11T02:06:08;26.75;;;11.63;;
72601;SDS011;60644;55.858;37.390;2022-11-11T02:08:53;24.92;;;10.38;;
72601;SDS011;60644;55.858;37.390;2022-11-11T02:11:39;25.80;;;11.85;;
72601;SDS011;60644;55.858;37.390;2022-11-11T02:14:44;23.53;;;10.73;;
72601;SDS011;60644;55.858;37.390;2022-11-11T02:17:31;28.30;;;10.95;;
72601;SDS011;60644;55.858;37.390;2022-11-11T02:20:18;24.67;;;10.20;;
72601;SDS011;60644;55.858;37.390;2022-11-11T02:26:13;25.25;;;11.25;;
72601;SDS011;60644;55.858;37.390;2022-11-11T02:29:00;21.80;;;9.33;;
72601;SDS011;60644;55.858;37.390;2022-11-11T02:31:46;21.83;;;9.43;;
72601;SDS011;60644;55.858;37.390;2022-11-11T02:34:31;21.83;;;10.45;;
72601;SDS011;60644;55.858;37.390;2022-11-11T02:37:17;25.25;;;10.18;;
72601;SDS011;60644;55.858;37.390;2022-11-11T02:40:05;23.55;;;9.90;;
72601;SDS011;60644;55.858;37.390;2022-11-11T02:42:51;20.73;;;8.53;;
72601;SDS011;60644;55.858;37.390;2022-11-11T02:45:36;20.73;;;8.60;;
72601;SDS011;60644;55.858;37.390;2022-11-11T02:48:20;19.17;;;7.95;;
72601;SDS011;60644;55.858;37.390;2022-11-11T02:51:06;20.23;;;9.07;;
72601;SDS011;60644;55.858;37.390;2022-11-11T02:53:51;19.85;;;8.15;;
72601;SDS011;60644;55.858;37.390;2022-11-11T02:56:41;19.70;;;8.63;;
72601;SDS011;60644;55.858;37.390;2022-11-11T02:59:44;19.02;;;7.40;;
72601;SDS011;60644;55.858;37.390;2022-11-11T03:02:31;20.42;;;9.52;;
72601;SDS011;60644;55.858;37.390;2022-11-11T03:05:15;17.88;;;7.95;;
72601;SDS011;60644;55.858;37.390;2022-11-11T03:08:00;17.35;;;7.05;;
72601;SDS011;60644;55.858;37.390;2022-11-11T03:10:44;15.17;;;7.07;;
72601;SDS011;60644;55.858;37.390;2022-11-11T03:13:29;17.55;;;7.43;;
72601;SDS011;60644;55.858;37.390;2022-11-11T03:16:13;16.85;;;7.80;;
72601;SDS011;60644;55.858;37.390;2022-11-11T03:19:17;15.82;;;8.05;;
72601;SDS011;60644;55.858;37.390;2022-11-11T03:22:02;16.42;;;7.03;;
72601;SDS011;60644;55.858;37.390;2022-11-11T03:24:46;19.60;;;7.97;;
72601;SDS011;60644;55.858;37.390;2022-11-11T03:27:49;15.40;;;7.25;;
72601;SDS011;60644;55.858;37.390;2022-11-11T03:30:34;15.75;;;6.72;;
72601;SDS011;60644;55.858;37.390;2022-11-11T03:33:19;17.52;;;7.35;;
72601;SDS011;60644;55.858;37.390;2022-11-11T03:36:03;14.38;;;6.00;;
72601;SDS011;60644;55.858;37.390;2022-11-11T03:38:48;15.37;;;7.23;;
72601;SDS011;60644;55.858;37.390;2022-11-11T03:41:32;14.30;;;6.22;;
72601;SDS011;60644;55.858;37.390;2022-11-11T03:44:17;18.60;;;7.07;;
72601;SDS011;60644;55.858;37.390;2022-11-11T03:47:01;15.32;;;6.53;;
72601;SDS011;60644;55.858;37.390;2022-11-11T03:49:45;14.10;;;6.70;;
72601;SDS011;60644;55.858;37.390;2022-11-11T03:52:30;15.13;;;6.67;;
72601;SDS011;60644;55.858;37.390;2022-11-11T03:55:14;15.18;;;6.43;;
72601;SDS011;60644;55.858;37.390;2022-11-11T03:57:59;14.55;;;5.72;;
72601;SDS011;60644;55.858;37.390;2022-11-11T04:00:43;13.85;;;6.28;;
72601;SDS011;60644;55.858;37.390;2022-11-11T04:03:27;15.13;;;6.22;;
72601;SDS011;60644;55.858;37.390;2022-11-11T04:06:31;14.73;;;6.13;;
72601;SDS011;60644;55.858;37.390;2022-11-11T04:09:34;15.38;;;5.70;;
72601;SDS011;60644;55.858;37.390;2022-11-11T04:12:38;14.63;;;6.70;;
72601;SDS011;60644;55.858;37.390;2022-11-11T04:15:43;13.38;;;6.22;;
72601;SDS011;60644;55.858;37.390;2022-11-11T04:18:46;16.23;;;6.18;;
72601;SDS011;60644;55.858;37.390;2022-11-11T04:21:49;14.63;;;6.87;;
72601;SDS011;60644;55.858;37.390;2022-11-11T04:24:34;16.35;;;6.72;;
72601;SDS011;60644;55.858;37.390;2022-11-11T04:27:37;13.20;;;6.28;;
72601;SDS011;60644;55.858;37.390;2022-11-11T04:30:22;13.07;;;5.25;;
72601;SDS011;60644;55.858;37.390;2022-11-11T04:33:06;14.10;;;6.60;;
72601;SDS011;60644;55.858;37.390;2022-11-11T04:35:50;16.00;;;7.03;;
72601;SDS011;60644;55.858;37.390;2022-11-11T04:38:35;11.48;;;5.80;;
72601;SDS011;60644;55.858;37.390;2022-11-11T04:41:38;14.18;;;6.05;;
72601;SDS011;60644;55.858;37.390;2022-11-11T04:44:22;13.02;;;6.10;;
72601;SDS011;60644;55.858;37.390;2022-11-11T04:47:25;13.65;;;5.60;;
72601;SDS011;60644;55.858;37.390;2022-11-11T04:50:10;14.70;;;6.47;;
72601;SDS011;60644;55.858;37.390;2022-11-11T04:52:54;13.18;;;5.60;;
72601;SDS011;60644;55.858;37.390;2022-11-11T04:55:39;15.10;;;5.70;;
72601;SDS011;60644;55.858;37.390;2022-11-11T04:58:44;12.18;;;5.70;;
72601;SDS011;60644;55.858;37.390;2022-11-11T05:01:29;13.73;;;6.65;;
72601;SDS011;60644;55.858;37.390;2022-11-11T05:04:33;16.53;;;7.20;;
72601;SDS011;60644;55.858;37.390;2022-11-11T05:07:17;12.07;;;4.90;;
72601;SDS011;60644;55.858;37.390;2022-11-11T05:10:20;12.85;;;6.30;;
72601;SDS011;60644;55.858;37.390;2022-11-11T05:13:04;13.82;;;5.70;;
72601;SDS011;60644;55.858;37.390;2022-11-11T05:16:13;13.68;;;6.25;;
72601;SDS011;60644;55.858;37.390;2022-11-11T05:19:20;13.13;;;5.87;;
72601;SDS011;60644;55.858;37.390;2022-11-11T05:22:36;12.45;;;5.28;;
72601;SDS011;60644;55.858;37.390;2022-11-11T05:25:25;13.38;;;5.47;;
72601;SDS011;60644;55.858;37.390;2022-11-11T05:28:09;13.73;;;5.65;;
72601;SDS011;60644;55.858;37.390;2022-11-11T05:30:54;11.98;;;5.50;;
72601;SDS011;60644;55.858;37.390;2022-11-11T05:33:39;12.53;;;6.07;;
72601;SDS011;60644;55.858;37.390;2022-11-11T05:36:24;11.70;;;5.47;;
72601;SDS011;60644;55.858;37.390;2022-11-11T05:39:09;12.15;;;5.35;;
72601;SDS011;60644;55.858;37.390;2022-11-11T05:41:54;12.63;;;5.10;;
72601;SDS011;60644;55.858;37.390;2022-11-11T05:44:38;10.25;;;4.30;;
72601;SDS011;60644;55.858;37.390;2022-11-11T05:47:24;13.23;;;5.40;;
72601;SDS011;60644;55.858;37.390;2022-11-11T05:50:08;11.98;;;4.35;;
72601;SDS011;60644;55.858;37.390;2022-11-11T05:52:52;11.63;;;4.85;;
72601;SDS011;60644;55.858;37.390;2022-11-11T05:55:38;9.65;;;4.20;;
72601;SDS011;60644;55.858;37.390;2022-11-11T05:58:23;11.05;;;5.10;;
72601;SDS011;60644;55.858;37.390;2022-11-11T06:01:08;9.53;;;3.80;;
72601;SDS011;60644;55.858;37.390;2022-11-11T06:03:52;9.38;;;3.70;;
72601;SDS011;60644;55.858;37.390;2022-11-11T06:06:37;12.13;;;5.72;;
72601;SDS011;60644;55.858;37.390;2022-11-11T06:09:21;11.27;;;4.70;;
72601;SDS011;60644;55.858;37.390;2022-11-11T06:12:06;11.25;;;4.88;;
72601;SDS011;60644;55.858;37.390;2022-11-11T06:14:50;11.27;;;5.10;;
72601;SDS011;60644;55.858;37.390;2022-11-11T06:17:35;10.65;;;4.25;;
72601;SDS011;60644;55.858;37.390;2022-11-11T06:20:21;9.80;;;4.18;;
72601;SDS011;60644;55.858;37.390;2022-11-11T06:23:05;10.30;;;5.03;;
72601;SDS011;60644;55.858;37.390;2022-11-11T06:25:50;10.90;;;4.30;;
72601;SDS011;60644;55.858;37.390;2022-11-11T06:28:54;9.60;;;4.40;;
72601;SDS011;60644;55.858;37.390;2022-11-11T06:31:39;10.80;;;4.05;;
72601;SDS011;60644;55.858;37.390;2022-11-11T06:34:24;11.10;;;4.57;;
72601;SDS011;60644;55.858;37.390;2022-11-11T06:37:08;12.45;;;4.20;;
72601;SDS011;60644;55.858;37.390;2022-11-11T06:39:53;9.82;;;4.15;;
72601;SDS011;60644;55.858;37.390;2022-11-11T06:42:38;9.80;;;3.93;;
72601;SDS011;60644;55.858;37.390;2022-11-11T06:45:26;10.48;;;4.03;;
72601;SDS011;60644;55.858;37.390;2022-11-11T06:48:12;10.43;;;3.60;;
72601;SDS011;60644;55.858;37.390;2022-11-11T06:51:00;10.93;;;4.38;;
72601;SDS011;60644;55.858;37.390;2022-11-11T06:53:47;9.55;;;4.10;;
72601;SDS011;60644;55.858;37.390;2022-11-11T06:56:32;9.73;;;4.50;;
72601;SDS011;60644;55.858;37.390;2022-11-11T06:59:16;9.75;;;3.80;;
72601;SDS011;60644;55.858;37.390;2022-11-11T07:02:01;10.77;;;4.18;;
72601;SDS011;60644;55.858;37.390;2022-11-11T07:04:45;10.48;;;4.30;;
72601;SDS011;60644;55.858;37.390;2022-11-11T07:07:30;10.07;;;4.15;;
72601;SDS011;60644;55.858;37.390;2022-11-11T07:10:14;10.70;;;4.00;;
72601;SDS011;60644;55.858;37.390;2022-11-11T07:13:00;9.82;;;4.25;;
72601;SDS011;60644;55.858;37.390;2022-11-11T07:15:45;10.90;;;4.28;;
72601;SDS011;60644;55.858;37.390;2022-11-11T07:18:30;9.70;;;3.92;;
72601;SDS011;60644;55.858;37.390;2022-11-11T07:21:15;11.00;;;5.03;;
72601;SDS011;60644;55.858;37.390;2022-11-11T07:24:00;12.87;;;5.20;;
72601;SDS011;60644;55.858;37.390;2022-11-11T07:26:44;12.55;;;4.45;;
72601;SDS011;60644;55.858;37.390;2022-11-11T07:29:29;10.88;;;4.32;;
72601;SDS011;60644;55.858;37.390;2022-11-11T07:32:14;12.45;;;4.82;;
72601;SDS011;60644;55.858;37.390;2022-11-11T07:35:00;10.63;;;4.53;;
72601;SDS011;60644;55.858;37.390;2022-11-11T07:37:44;12.70;;;4.83;;
72601;SDS011;60644;55.858;37.390;2022-11-11T07:40:29;11.32;;;4.60;;
72601;SDS011;60644;55.858;37.390;2022-11-11T07:43:14;12.05;;;4.95;;
72601;SDS011;60644;55.858;37.390;2022-11-11T07:45:58;11.35;;;4.63;;
72601;SDS011;60644;55.858;37.390;2022-11-11T07:48:43;11.65;;;4.65;;
72601;SDS011;60644;55.858;37.390;2022-11-11T07:51:27;15.50;;;5.53;;
72601;SDS011;60644;55.858;37.390;2022-11-11T07:54:12;13.80;;;5.43;;
72601;SDS011;60644;55.858;37.390;2022-11-11T07:56:56;13.02;;;5.45;;
72601;SDS011;60644;55.858;37.390;2022-11-11T07:59:41;12.35;;;5.28;;
72601;SDS011;60644;55.858;37.390;2022-11-11T08:02:25;13.07;;;5.85;;
72601;SDS011;60644;55.858;37.390;2022-11-11T08:05:10;10.67;;;4.20;;
72601;SDS011;60644;55.858;37.390;2022-11-11T08:07:54;16.40;;;5.10;;
72601;SDS011;60644;55.858;37.390;2022-11-11T08:10:39;11.10;;;4.10;;
72601;SDS011;60644;55.858;37.390;2022-11-11T08:13:23;10.25;;;4.15;;
72601;SDS011;60644;55.858;37.390;2022-11-11T08:16:23;10.57;;;4.40;;
72601;SDS011;60644;55.858;37.390;2022-11-11T08:19:08;10.30;;;4.23;;
72601;SDS011;60644;55.858;37.390;2022-11-11T08:21:52;10.55;;;4.30;;
72601;SDS011;60644;55.858;37.390;2022-11-11T08:24:37;11.07;;;4.43;;
72601;SDS011;60644;55.858;37.390;2022-11-11T08:27:21;11.35;;;4.15;;
72601;SDS011;60644;55.858;37.390;2022-11-11T08:30:07;9.48;;;3.47;;
72601;SDS011;60644;55.858;37.390;2022-11-11T08:33:03;10.73;;;4.07;;
72601;SDS011;60644;55.858;37.390;2022-11-11T08:35:49;10.98;;;3.67;;
72601;SDS011;60644;55.858;37.390;2022-11-11T08:38:33;8.95;;;3.65;;
72601;SDS011;60644;55.858;37.390;2022-11-11T08:41:18;10.05;;;3.55;;
72601;SDS011;60644;55.858;37.390;2022-11-11T08:44:04;8.45;;;3.55;;
72601;SDS011;60644;55.858;37.390;2022-11-11T08:46:48;9.10;;;3.60;;
72601;SDS011;60644;55.858;37.390;2022-11-11T08:49:33;9.05;;;3.25;;
72601;SDS011;60644;55.858;37.390;2022-11-11T08:52:17;9.77;;;3.70;;
72601;SDS011;60644;55.858;37.390;2022-11-11T08:55:02;9.32;;;4.07;;
72601;SDS011;60644;55.858;37.390;2022-11-11T08:57:47;9.25;;;3.33;;
72601;SDS011;60644;55.858;37.390;2022-11-11T09:00:31;8.07;;;3.63;;
72601;SDS011;60644;55.858;37.390;2022-11-11T09:03:16;8.68;;;3.40;;
72601;SDS011;60644;55.858;37.390;2022-11-11T09:06:01;8.13;;;3.30;;
72601;SDS011;60644;55.858;37.390;2022-11-11T09:08:46;10.13;;;3.50;;
72601;SDS011;60644;55.858;37.390;2022-11-11T09:11:30;9.32;;;2.80;;
72601;SDS011;60644;55.858;37.390;2022-11-11T09:14:18;7.77;;;2.90;;
72601;SDS011;60644;55.858;37.390;2022-11-11T09:17:03;9.02;;;2.70;;
72601;SDS011;60644;55.858;37.390;2022-11-11T09:19:48;8.40;;;3.30;;
72601;SDS011;60644;55.858;37.390;2022-11-11T09:22:40;8.23;;;2.80;;
72601;SDS011;60644;55.858;37.390;2022-11-11T09:25:30;8.30;;;3.25;;
72601;SDS011;60644;55.858;37.390;2022-11-11T09:28:15;8.50;;;3.07;;
72601;SDS011;60644;55.858;37.390;2022-11-11T09:31:00;8.98;;;3.67;;
72601;SDS011;60644;55.858;37.390;2022-11-11T09:33:44;7.65;;;2.63;;
72601;SDS011;60644;55.858;37.390;2022-11-11T09:36:29;8.95;;;3.13;;
72601;SDS011;60644;55.858;37.390;2022-11-11T09:39:14;9.18;;;3.13;;
72601;SDS011;60644;55.858;37.390;2022-11-11T09:42:04;8.27;;;3.07;;
72601;SDS011;60644;55.858;37.390;2022-11-11T09:45:11;8.75;;;3.28;;
72601;SDS011;60644;55.858;37.390;2022-11-11T09:51:08;8.93;;;3.70;;
72601;SDS011;60644;55.858;37.390;2022-11-11T09:54:05;8.18;;;2.70;;
72601;SDS011;60644;55.858;37.390;2022-11-11T09:56:54;9.53;;;3.27;;
72601;SDS011;60644;55.858;37.390;2022-11-11T09:59:48;7.35;;;2.88;;
72601;SDS011;60644;55.858;37.390;2022-11-11T10:02:39;7.20;;;2.35;;
72601;SDS011;60644;55.858;37.390;2022-11-11T10:09:00;6.75;;;2.53;;
72601;SDS011;60644;55.858;37.390;2022-11-11T10:14:52;6.57;;;2.28;;
72601;SDS011;60644;55.858;37.390;2022-11-11T10:20:53;6.70;;;2.45;;
72601;SDS011;60644;55.858;37.390;2022-11-11T10:23:39;6.32;;;2.28;;
72601;SDS011;60644;55.858;37.390;2022-11-11T10:26:44;7.47;;;2.37;;
72601;SDS011;60644;55.858;37.390;2022-11-11T10:29:40;7.43;;;2.78;;
72601;SDS011;60644;55.858;37.390;2022-11-11T10:32:33;6.32;;;2.40;;
72601;SDS011;60644;55.858;37.390;2022-11-11T10:35:21;7.20;;;3.17;;
72601;SDS011;60644;55.858;37.390;2022-11-11T10:38:16;7.90;;;2.47;;
72601;SDS011;60644;55.858;37.390;2022-11-11T10:41:16;7.07;;;2.50;;
72601;SDS011;60644;55.858;37.390;2022-11-11T10:44:27;6.50;;;2.33;;
72601;SDS011;60644;55.858;37.390;2022-11-11T10:50:27;7.40;;;2.40;;
72601;SDS011;60644;55.858;37.390;2022-11-11T10:53:19;6.60;;;2.40;;
72601;SDS011;60644;55.858;37.390;2022-11-11T10:59:11;19.67;;;10.77;;
72601;SDS011;60644;55.858;37.390;2022-11-11T11:02:06;12.57;;;6.18;;
72601;SDS011;60644;55.858;37.390;2022-11-11T11:05:02;7.65;;;3.15;;
72601;SDS011;60644;55.858;37.390;2022-11-11T11:07:57;10.07;;;3.90;;
72601;SDS011;60644;55.858;37.390;2022-11-11T11:10:59;7.80;;;2.90;;
72601;SDS011;60644;55.858;37.390;2022-11-11T11:13:49;10.30;;;3.78;;
72601;SDS011;60644;55.858;37.390;2022-11-11T11:16:37;9.45;;;3.42;;
72601;SDS011;60644;55.858;37.390;2022-11-11T11:19:29;8.48;;;3.30;;
72601;SDS011;60644;55.858;37.390;2022-11-11T11:22:13;8.65;;;2.58;;
72601;SDS011;60644;55.858;37.390;2022-11-11T11:25:07;7.20;;;2.90;;
72601;SDS011;60644;55.858;37.390;2022-11-11T11:28:06;7.47;;;2.92;;
72601;SDS011;60644;55.858;37.390;2022-11-11T11:30:59;8.88;;;2.97;;
72601;SDS011;60644;55.858;37.390;2022-11-11T11:33:52;8.50;;;2.95;;
72601;SDS011;60644;55.858;37.390;2022-11-11T11:36:38;10.60;;;3.78;;
72601;SDS011;60644;55.858;37.390;2022-11-11T11:39:41;7.57;;;2.80;;
72601;SDS011;60644;55.858;37.390;2022-11-11T11:42:29;11.30;;;3.60;;
72601;SDS011;60644;55.858;37.390;2022-11-11T11:45:20;9.05;;;3.40;;
72601;SDS011;60644;55.858;37.390;2022-11-11T11:48:13;7.75;;;3.03;;
72601;SDS011;60644;55.858;37.390;2022-11-11T11:51:16;9.77;;;3.55;;
72601;SDS011;60644;55.858;37.390;2022-11-11T11:55:24;9.40;;;3.73;;
72601;SDS011;60644;55.858;37.390;2022-11-11T12:01:12;8.40;;;3.50;;
72601;SDS011;60644;55.858;37.390;2022-11-11T12:06:57;9.32;;;3.40;;
72601;SDS011;60644;55.858;37.390;2022-11-11T12:17:04;9.35;;;3.25;;
72601;SDS011;60644;55.858;37.390;2022-11-11T12:22:07;9.07;;;3.08;;
72601;SDS011;60644;55.858;37.390;2022-11-11T12:25:22;11.40;;;3.93;;
72601;SDS011;60644;55.858;37.390;2022-11-11T12:28:16;10.40;;;3.53;;
72601;SDS011;60644;55.858;37.390;2022-11-11T12:34:25;9.68;;;3.90;;
72601;SDS011;60644;55.858;37.390;2022-11-11T12:43:42;7.45;;;2.75;;
72601;SDS011;60644;55.858;37.390;2022-11-11T12:53:10;8.57;;;3.22;;
72601;SDS011;60644;55.858;37.390;2022-11-11T12:58:47;8.13;;;2.47;;
72601;SDS011;60644;55.858;37.390;2022-11-11T13:01:50;6.93;;;2.40;;
72601;SDS011;60644;55.858;37.390;2022-11-11T13:04:48;7.10;;;2.30;;
72601;SDS011;60644;55.858;37.390;2022-11-11T13:17:10;7.18;;;2.35;;
72601;SDS011;60644;55.858;37.390;2022-11-11T13:20:02;7.45;;;2.30;;
72601;SDS011;60644;55.858;37.390;2022-11-11T13:22:58;7.97;;;2.17;;
72601;SDS011;60644;55.858;37.390;2022-11-11T13:25:45;7.53;;;2.47;;
72601;SDS011;60644;55.858;37.390;2022-11-11T13:28:33;7.13;;;2.50;;
72601;SDS011;60644;55.858;37.390;2022-11-11T13:31:31;6.07;;;2.28;;
72601;SDS011;60644;55.858;37.390;2022-11-11T13:34:23;9.18;;;2.85;;
72601;SDS011;60644;55.858;37.390;2022-11-11T13:37:17;7.72;;;2.80;;
72601;SDS011;60644;55.858;37.390;2022-11-11T13:40:06;7.67;;;3.30;;
72601;SDS011;60644;55.858;37.390;2022-11-11T13:42:55;7.15;;;2.38;;
72601;SDS011;60644;55.858;37.390;2022-11-11T13:45:40;5.90;;;2.20;;
72601;SDS011;60644;55.858;37.390;2022-11-11T13:48:34;6.72;;;2.22;;
72601;SDS011;60644;55.858;37.390;2022-11-11T13:54:30;7.70;;;2.40;;
72601;SDS011;60644;55.858;37.390;2022-11-11T14:00:22;6.03;;;2.10;;
72601;SDS011;60644;55.858;37.390;2022-11-11T14:08:58;6.73;;;2.20;;
72601;SDS011;60644;55.858;37.390;2022-11-11T14:11:44;8.05;;;2.15;;
72601;SDS011;60644;55.858;37.390;2022-11-11T14:17:19;9.65;;;3.47;;
72601;SDS011;60644;55.858;37.390;2022-11-11T14:23:31;10.07;;;3.90;;
72601;SDS011;60644;55.858;37.390;2022-11-11T14:26:22;8.40;;;3.55;;
72601;SDS011;60644;55.858;37.390;2022-11-11T14:29:13;7.93;;;3.40;;
72601;SDS011;60644;55.858;37.390;2022-11-11T14:41:44;8.85;;;3.90;;
72601;SDS011;60644;55.858;37.390;2022-11-11T14:47:16;8.30;;;3.38;;
72601;SDS011;60644;55.858;37.390;2022-11-11T14:50:51;10.10;;;3.78;;
72601;SDS011;60644;55.858;37.390;2022-11-11T14:53:15;9.13;;;3.20;;
72601;SDS011;60644;55.858;37.390;2022-11-11T14:56:02;9.25;;;4.78;;
72601;SDS011;60644;55.858;37.390;2022-11-11T14:58:48;10.15;;;4.22;;
72601;SDS011;60644;55.858;37.390;2022-11-11T15:01:32;7.85;;;3.45;;
72601;SDS011;60644;55.858;37.390;2022-11-11T15:04:17;8.93;;;3.80;;
72601;SDS011;60644;55.858;37.390;2022-11-11T15:07:02;8.53;;;3.23;;
72601;SDS011;60644;55.858;37.390;2022-11-11T15:09:54;8.75;;;3.25;;
72601;SDS011;60644;55.858;37.390;2022-11-11T15:13:15;8.27;;;3.10;;
72601;SDS011;60644;55.858;37.390;2022-11-11T15:20:07;6.25;;;2.55;;
72601;SDS011;60644;55.858;37.390;2022-11-11T15:23:03;7.97;;;2.80;;
72601;SDS011;60644;55.858;37.390;2022-11-11T15:26:05;8.70;;;2.47;;
72601;SDS011;60644;55.858;37.390;2022-11-11T15:32:54;8.85;;;2.30;;
72601;SDS011;60644;55.858;37.390;2022-11-11T15:36:17;7.20;;;2.17;;
72601;SDS011;60644;55.858;37.390;2022-11-11T15:39:17;7.77;;;2.30;;
72601;SDS011;60644;55.858;37.390;2022-11-11T15:42:04;6.85;;;2.10;;
72601;SDS011;60644;55.858;37.390;2022-11-11T15:44:57;6.25;;;2.20;;
72601;SDS011;60644;55.858;37.390;2022-11-11T15:47:44;6.30;;;1.75;;
72601;SDS011;60644;55.858;37.390;2022-11-11T15:50:32;6.32;;;1.92;;
72601;SDS011;60644;55.858;37.390;2022-11-11T15:53:22;6.40;;;1.93;;
72601;SDS011;60644;55.858;37.390;2022-11-11T15:56:09;5.35;;;1.65;;
72601;SDS011;60644;55.858;37.390;2022-11-11T15:58:54;6.45;;;1.70;;
72601;SDS011;60644;55.858;37.390;2022-11-11T16:01:39;6.45;;;1.80;;
72601;SDS011;60644;55.858;37.390;2022-11-11T16:04:24;6.35;;;1.80;;
72601;SDS011;60644;55.858;37.390;2022-11-11T16:07:22;6.00;;;2.00;;
72601;SDS011;60644;55.858;37.390;2022-11-11T16:10:12;6.15;;;1.88;;
72601;SDS011;60644;55.858;37.390;2022-11-11T16:15:51;6.78;;;2.20;;
72601;SDS011;60644;55.858;37.390;2022-11-11T16:22:27;8.63;;;2.17;;
72601;SDS011;60644;55.858;37.390;2022-11-11T16:25:20;9.82;;;2.10;;
72601;SDS011;60644;55.858;37.390;2022-11-11T16:28:05;6.93;;;2.42;;
72601;SDS011;60644;55.858;37.390;2022-11-11T16:30:50;7.60;;;1.88;;
72601;SDS011;60644;55.858;37.390;2022-11-11T16:33:34;5.80;;;2.00;;
72601;SDS011;60644;55.858;37.390;2022-11-11T16:36:21;6.83;;;1.93;;
72601;SDS011;60644;55.858;37.390;2022-11-11T16:39:12;6.63;;;2.20;;
72601;SDS011;60644;55.858;37.390;2022-11-11T16:42:05;7.88;;;2.47;;
72601;SDS011;60644;55.858;37.390;2022-11-11T16:45:05;6.40;;;1.80;;
72601;SDS011;60644;55.858;37.390;2022-11-11T16:48:02;10.30;;;2.15;;
72601;SDS011;60644;55.858;37.390;2022-11-11T16:50:57;5.80;;;1.93;;
72601;SDS011;60644;55.858;37.390;2022-11-11T16:53:48;7.55;;;2.40;;
72601;SDS011;60644;55.858;37.390;2022-11-11T16:56:52;7.18;;;2.38;;
72601;SDS011;60644;55.858;37.390;2022-11-11T16:59:44;7.95;;;2.50;;
72601;SDS011;60644;55.858;37.390;2022-11-11T17:02:31;8.00;;;3.55;;
72601;SDS011;60644;55.858;37.390;2022-11-11T17:05:17;9.37;;;2.83;;
72601;SDS011;60644;55.858;37.390;2022-11-11T17:08:12;9.18;;;3.33;;
72601;SDS011;60644;55.858;37.390;2022-11-11T17:14:23;9.05;;;2.63;;
72601;SDS011;60644;55.858;37.390;2022-11-11T17:17:09;7.78;;;2.90;;
72601;SDS011;60644;55.858;37.390;2022-11-11T17:19:54;7.73;;;2.40;;
72601;SDS011;60644;55.858;37.390;2022-11-11T17:22:48;7.28;;;2.90;;
72601;SDS011;60644;55.858;37.390;2022-11-11T17:25:39;9.98;;;3.35;;
72601;SDS011;60644;55.858;37.390;2022-11-11T17:28:25;14.13;;;3.85;;
72601;SDS011;60644;55.858;37.390;2022-11-11T17:31:11;7.80;;;3.42;;
72601;SDS011;60644;55.858;37.390;2022-11-11T17:33:57;8.30;;;3.40;;
72601;SDS011;60644;55.858;37.390;2022-11-11T17:36:42;8.38;;;3.10;;
72601;SDS011;60644;55.858;37.390;2022-11-11T17:39:27;8.57;;;3.85;;
72601;SDS011;60644;55.858;37.390;2022-11-11T17:42:11;11.02;;;2.78;;
72601;SDS011;60644;55.858;37.390;2022-11-11T17:44:57;8.07;;;3.00;;
72601;SDS011;60644;55.858;37.390;2022-11-11T17:47:41;7.30;;;2.77;;
72601;SDS011;60644;55.858;37.390;2022-11-11T17:50:26;8.45;;;2.67;;
72601;SDS011;60644;55.858;37.390;2022-11-11T17:53:11;7.43;;;2.80;;
72601;SDS011;60644;55.858;37.390;2022-11-11T17:55:59;7.78;;;2.63;;
72601;SDS011;60644;55.858;37.390;2022-11-11T17:58:44;9.90;;;3.53;;
72601;SDS011;60644;55.858;37.390;2022-11-11T18:01:29;9.00;;;3.50;;
72601;SDS011;60644;55.858;37.390;2022-11-11T18:04:13;7.90;;;3.00;;
72601;SDS011;60644;55.858;37.390;2022-11-11T18:06:58;10.25;;;2.80;;
72601;SDS011;60644;55.858;37.390;2022-11-11T18:09:43;8.07;;;3.20;;
72601;SDS011;60644;55.858;37.390;2022-11-11T18:12:29;10.13;;;2.88;;
72601;SDS011;60644;55.858;37.390;2022-11-11T18:15:14;8.27;;;2.73;;
72601;SDS011;60644;55.858;37.390;2022-11-11T18:17:59;8.23;;;3.50;;
72601;SDS011;60644;55.858;37.390;2022-11-11T18:20:43;8.45;;;3.38;;
72601;SDS011;60644;55.858;37.390;2022-11-11T18:23:29;9.57;;;3.42;;
72601;SDS011;60644;55.858;37.390;2022-11-11T18:26:18;7.95;;;3.50;;
72601;SDS011;60644;55.858;37.390;2022-11-11T18:29:06;8.90;;;3.17;;
72601;SDS011;60644;55.858;37.390;2022-11-11T18:31:51;9.25;;;3.40;;
72601;SDS011;60644;55.858;37.390;2022-11-11T18:34:36;10.07;;;3.78;;
72601;SDS011;60644;55.858;37.390;2022-11-11T18:37:23;8.00;;;3.03;;
72601;SDS011;60644;55.858;37.390;2022-11-11T18:40:07;10.73;;;4.00;;